Time,TemperatureF,DewpointF,PressureIn,WindDirection,WindDirectionDegrees,WindSpeedMPH,WindSpeedGustMPH,Humidity,HourlyPrecipIn,Conditions,Clouds,dailyrainin,SoftwareType,DateUTC
2013-01-24 00:00:00,44.1,42.2,30.33,East,92,0.0,1.0,93,0.00,,SKC,0.00,VWS V14.01,2013-01-24 05:00:00,
2013-01-24 00:01:00,44.1,42.2,30.33,East,92,0.0,0.0,93,0.00,,SKC,0.00,VWS V14.01,2013-01-24 05:01:00,
2013-01-24 00:04:00,44.0,42.1,30.33,East,92,0.0,1.0,93,0.00,,SKC,0.00,VWS V14.01,2013-01-24 05:04:00,
2013-01-24 00:09:00,44.0,42.4,30.33,East,92,0.0,1.0,94,0.00,,SKC,0.00,VWS V14.01,2013-01-24 05:09:00,
2013-01-24 00:15:00,44.0,42.4,30.32,East,92,0.0,1.0,94,0.00,,SKC,0.00,VWS V14.01,2013-01-24 05:15:00,
2013-01-24 00:20:00,44.1,42.5,30.32,East,92,0.0,1.0,94,0.00,,SKC,0.00,VWS V14.01,2013-01-24 05:20:00,
2013-01-24 00:26:00,44.2,42.6,30.32,East,92,0.0,1.0,94,0.00,,SKC,0.00,VWS V14.01,2013-01-24 05:26:00,
2013-01-24 00:31:00,44.3,42.7,30.32,East,92,0.0,0.0,94,0.00,,SKC,0.00,VWS V14.01,2013-01-24 05:31:00,
2013-01-24 00:36:00,44.3,43.0,30.32,East,92,0.0,0.0,95,0.00,,SKC,0.00,VWS V14.01,2013-01-24 05:36:00,
2013-01-24 00:42:00,44.2,42.9,30.32,East,92,0.0,0.0,95,0.00,,SKC,0.00,VWS V14.01,2013-01-24 05:42:00,
2013-01-24 00:47:00,44.2,42.9,30.32,East,92,0.0,0.0,95,0.00,,SKC,0.00,VWS V14.01,2013-01-24 05:47:00,
2013-01-24 00:52:00,44.1,42.8,30.32,East,92,0.0,0.0,95,0.00,,SKC,0.00,VWS V14.01,2013-01-24 05:52:00,
2013-01-24 00:58:00,44.0,42.7,30.32,East,92,0.0,0.0,95,0.00,,SKC,0.00,VWS V14.01,2013-01-24 05:58:00,
2013-01-24 01:03:00,44.0,42.7,30.32,East,92,0.0,0.0,95,0.00,,SKC,0.00,VWS V14.01,2013-01-24 06:03:00,
2013-01-24 01:09:00,43.9,42.6,30.32,East,92,0.0,0.0,95,0.00,,SKC,0.00,VWS V14.01,2013-01-24 06:09:00,
2013-01-24 01:14:00,43.9,42.6,30.32,East,92,0.0,0.0,95,0.00,,SKC,0.00,VWS V14.01,2013-01-24 06:14:00,
2013-01-24 01:20:00,43.8,42.5,30.31,East,92,0.0,0.0,95,0.00,,SKC,0.00,VWS V14.01,2013-01-24 06:20:00,
2013-01-24 01:25:00,43.7,42.1,30.31,East,92,0.0,0.0,94,0.00,,SKC,0.00,VWS V14.01,2013-01-24 06:25:00,
2013-01-24 01:30:00,43.6,42.3,30.31,East,92,0.0,0.0,95,0.00,,SKC,0.00,VWS V14.01,2013-01-24 06:30:00,
2013-01-24 01:36:00,43.6,42.3,30.31,East,92,0.0,0.0,95,0.00,,SKC,0.00,VWS V14.01,2013-01-24 06:36:00,
2013-01-24 01:41:00,43.6,42.3,30.31,East,92,0.0,0.0,95,0.00,,SKC,0.00,VWS V14.01,2013-01-24 06:41:00,
2013-01-24 01:47:00,43.5,42.2,30.31,East,92,0.0,0.0,95,0.00,,SKC,0.00,VWS V14.01,2013-01-24 06:47:00,
2013-01-24 01:52:00,43.5,42.2,30.31,East,92,0.0,0.0,95,0.00,,SKC,0.00,VWS V14.01,2013-01-24 06:52:00,
2013-01-24 01:58:00,43.4,42.1,30.30,East,92,0.0,0.0,95,0.00,,SKC,0.00,VWS V14.01,2013-01-24 06:58:00,
2013-01-24 02:03:00,43.3,42.0,30.30,East,92,0.0,0.0,95,0.00,,SKC,0.00,VWS V14.01,2013-01-24 07:03:00,
2013-01-24 02:08:00,43.3,42.0,30.30,East,92,0.0,0.0,95,0.00,,SKC,0.00,VWS V14.01,2013-01-24 07:08:00,
2013-01-24 02:13:00,43.3,42.0,30.31,East,92,0.0,0.0,95,0.00,,SKC,0.00,VWS V14.01,2013-01-24 07:13:00,
2013-01-24 02:19:00,43.4,42.1,30.31,East,92,0.0,0.0,95,0.00,,SKC,0.00,VWS V14.01,2013-01-24 07:19:00,
2013-01-24 02:24:00,43.4,42.1,30.30,East,92,0.0,0.0,95,0.00,,SKC,0.00,VWS V14.01,2013-01-24 07:24:00,
2013-01-24 02:30:00,43.3,42.0,30.30,East,93,0.0,0.0,95,0.00,,SKC,0.00,VWS V14.01,2013-01-24 07:30:00,
2013-01-24 02:35:00,43.3,42.0,30.30,East,92,0.0,0.0,95,0.00,,SKC,0.00,VWS V14.01,2013-01-24 07:35:00,
2013-01-24 02:41:00,43.2,41.9,30.30,East,92,0.0,0.0,95,0.00,,SKC,0.00,VWS V14.01,2013-01-24 07:41:00,
2013-01-24 02:46:00,43.1,41.8,30.30,East,93,0.0,0.0,95,0.00,,SKC,0.00,VWS V14.01,2013-01-24 07:46:00,
2013-01-24 02:51:00,43.0,41.7,30.30,East,92,0.0,0.0,95,0.00,,SKC,0.00,VWS V14.01,2013-01-24 07:51:00,
2013-01-24 02:57:00,43.0,41.7,30.30,East,92,0.0,0.0,95,0.00,,SKC,0.00,VWS V14.01,2013-01-24 07:57:00,
2013-01-24 03:02:00,43.0,41.9,30.30,East,92,0.0,0.0,96,0.00,,SKC,0.00,VWS V14.01,2013-01-24 08:02:00,
2013-01-24 03:07:00,43.0,41.9,30.30,East,92,0.0,0.0,96,0.00,,SKC,0.00,VWS V14.01,2013-01-24 08:07:00,
2013-01-24 03:13:00,42.9,41.8,30.30,East,92,0.0,0.0,96,0.00,,SKC,0.00,VWS V14.01,2013-01-24 08:13:00,
2013-01-24 03:18:00,42.8,41.7,30.30,East,93,0.0,0.0,96,0.00,,SKC,0.00,VWS V14.01,2013-01-24 08:18:00,
2013-01-24 03:24:00,42.8,41.7,30.30,East,92,0.0,0.0,96,0.00,,SKC,0.00,VWS V14.01,2013-01-24 08:24:00,
2013-01-24 03:29:00,42.7,41.6,30.31,East,92,0.0,0.0,96,0.00,,SKC,0.00,VWS V14.01,2013-01-24 08:29:00,
2013-01-24 03:34:00,42.6,41.5,30.31,East,92,0.0,0.0,96,0.00,,SKC,0.00,VWS V14.01,2013-01-24 08:34:00,
2013-01-24 03:40:00,42.5,41.4,30.31,East,92,0.0,0.0,96,0.00,,SKC,0.00,VWS V14.01,2013-01-24 08:40:00,
2013-01-24 03:45:00,42.4,41.3,30.31,East,92,0.0,0.0,96,0.00,,SKC,0.00,VWS V14.01,2013-01-24 08:45:00,
2013-01-24 03:50:00,42.4,41.3,30.31,East,92,0.0,0.0,96,0.00,,SKC,0.00,VWS V14.01,2013-01-24 08:50:00,
2013-01-24 03:57:00,42.4,41.3,30.31,East,92,0.0,0.0,96,0.00,,SKC,0.00,VWS V14.01,2013-01-24 08:57:00,
2013-01-24 04:03:00,42.4,41.3,30.31,East,92,0.0,0.0,96,0.00,,SKC,0.00,VWS V14.01,2013-01-24 09:03:00,
2013-01-24 04:08:00,42.4,41.3,30.31,East,92,0.0,0.0,96,0.00,,SKC,0.00,VWS V14.01,2013-01-24 09:08:00,
2013-01-24 04:14:00,42.4,41.3,30.31,East,93,0.0,0.0,96,0.00,,SKC,0.00,VWS V14.01,2013-01-24 09:14:00,
2013-01-24 04:19:00,42.4,41.3,30.31,East,92,0.0,0.0,96,0.00,,SKC,0.00,VWS V14.01,2013-01-24 09:19:00,
2013-01-24 04:24:00,42.5,41.7,30.31,East,92,0.0,0.0,97,0.00,,SKC,0.00,VWS V14.01,2013-01-24 09:24:00,
2013-01-24 04:30:00,42.4,41.3,30.31,North,355,0.0,0.0,96,0.00,,SKC,0.00,VWS V14.01,2013-01-24 09:30:00,
2013-01-24 04:35:00,42.5,41.7,30.31,North,355,0.0,0.0,97,0.00,,SKC,0.00,VWS V14.01,2013-01-24 09:35:00,
2013-01-24 04:41:00,42.7,41.9,30.30,North,355,0.0,1.0,97,0.00,,SKC,0.00,VWS V14.01,2013-01-24 09:41:00,
2013-01-24 04:46:00,42.9,42.1,30.30,North,355,0.0,1.0,97,0.00,,SKC,0.00,VWS V14.01,2013-01-24 09:46:00,
2013-01-24 04:52:00,43.3,42.5,30.31,North,355,0.0,1.0,97,0.00,,SKC,0.00,VWS V14.01,2013-01-24 09:52:00,
2013-01-24 04:57:00,43.5,42.7,30.31,North,355,0.0,1.0,97,0.00,,SKC,0.00,VWS V14.01,2013-01-24 09:57:00,
2013-01-24 05:02:00,43.6,42.8,30.31,North,355,0.0,0.0,97,0.00,,SKC,0.00,VWS V14.01,2013-01-24 10:02:00,
2013-01-24 05:08:00,43.6,42.8,30.31,North,355,0.0,0.0,97,0.00,,SKC,0.00,VWS V14.01,2013-01-24 10:08:00,
2013-01-24 05:13:00,43.6,42.8,30.31,North,355,0.0,0.0,97,0.00,,SKC,0.00,VWS V14.01,2013-01-24 10:13:00,
2013-01-24 05:18:00,43.6,42.8,30.31,North,355,0.0,0.0,97,0.00,,SKC,0.00,VWS V14.01,2013-01-24 10:18:00,
2013-01-24 05:24:00,43.6,42.8,30.31,North,355,0.0,0.0,97,0.00,,SKC,0.00,VWS V14.01,2013-01-24 10:24:00,
2013-01-24 05:30:00,43.6,42.8,30.30,North,355,0.0,0.0,97,0.00,,SKC,0.00,VWS V14.01,2013-01-24 10:30:00,
2013-01-24 05:35:00,43.5,42.7,30.30,North,355,0.0,0.0,97,0.00,,SKC,0.00,VWS V14.01,2013-01-24 10:35:00,
2013-01-24 05:40:00,43.5,42.7,30.31,North,355,0.0,0.0,97,0.00,,SKC,0.00,VWS V14.01,2013-01-24 10:40:00,
2013-01-24 05:46:00,43.5,42.7,30.31,North,355,0.0,0.0,97,0.00,,SKC,0.00,VWS V14.01,2013-01-24 10:46:00,
2013-01-24 05:51:00,43.5,42.7,30.31,North,355,0.0,0.0,97,0.00,,SKC,0.00,VWS V14.01,2013-01-24 10:51:00,
2013-01-24 05:57:00,43.4,42.6,30.31,North,355,0.0,1.0,97,0.00,,SKC,0.00,VWS V14.01,2013-01-24 10:57:00,
2013-01-24 06:02:00,43.4,42.6,30.30,North,355,0.0,1.0,97,0.00,,SKC,0.00,VWS V14.01,2013-01-24 11:02:00,
2013-01-24 06:07:00,43.4,42.6,30.30,North,355,0.0,1.0,97,0.00,,SKC,0.00,VWS V14.01,2013-01-24 11:07:00,
2013-01-24 06:12:00,43.4,42.6,30.31,North,355,0.0,1.0,97,0.00,,SKC,0.00,VWS V14.01,2013-01-24 11:12:00,
2013-01-24 06:18:00,43.4,42.6,30.31,North,355,0.0,1.0,97,0.00,,SKC,0.00,VWS V14.01,2013-01-24 11:18:00,
2013-01-24 06:23:00,43.4,42.6,30.31,North,355,0.0,1.0,97,0.00,,SKC,0.00,VWS V14.01,2013-01-24 11:23:00,
2013-01-24 06:29:00,43.4,42.6,30.31,North,355,0.0,1.0,97,0.00,,SKC,0.00,VWS V14.01,2013-01-24 11:29:00,
2013-01-24 06:34:00,43.3,42.5,30.32,North,355,0.0,0.0,97,0.00,,SKC,0.00,VWS V14.01,2013-01-24 11:34:00,
2013-01-24 06:40:00,43.2,42.4,30.32,North,355,0.0,0.0,97,0.00,,SKC,0.00,VWS V14.01,2013-01-24 11:40:00,
2013-01-24 06:45:00,43.1,42.3,30.32,North,355,0.0,0.0,97,0.00,,SKC,0.00,VWS V14.01,2013-01-24 11:45:00,
2013-01-24 06:50:00,43.0,42.2,30.32,North,355,0.0,0.0,97,0.00,,SKC,0.00,VWS V14.01,2013-01-24 11:50:00,
2013-01-24 06:56:00,42.9,42.1,30.32,North,355,0.0,0.0,97,0.00,,SKC,0.00,VWS V14.01,2013-01-24 11:56:00,
2013-01-24 07:01:00,42.8,42.0,30.32,North,355,0.0,0.0,97,0.00,,SKC,0.00,VWS V14.01,2013-01-24 12:01:00,
2013-01-24 07:07:00,42.7,41.9,30.32,North,355,0.0,0.0,97,0.00,,SKC,0.00,VWS V14.01,2013-01-24 12:07:00,
2013-01-24 07:13:00,42.6,41.8,30.32,North,355,0.0,0.0,97,0.00,,SKC,0.00,VWS V14.01,2013-01-24 12:13:00,
2013-01-24 07:18:00,42.6,41.8,30.32,North,355,0.0,0.0,97,0.00,,SKC,0.00,VWS V14.01,2013-01-24 12:18:00,
2013-01-24 07:23:00,42.5,41.7,30.32,North,355,0.0,0.0,97,0.00,,SKC,0.00,VWS V14.01,2013-01-24 12:23:00,
2013-01-24 07:29:00,42.5,41.7,30.32,North,355,0.0,0.0,97,0.00,,SKC,0.00,VWS V14.01,2013-01-24 12:29:00,
2013-01-24 07:34:00,42.4,41.6,30.32,North,355,0.0,0.0,97,0.00,,SKC,0.00,VWS V14.01,2013-01-24 12:34:00,
2013-01-24 07:40:00,42.4,41.6,30.32,North,355,0.0,0.0,97,0.00,,SKC,0.00,VWS V14.01,2013-01-24 12:40:00,
2013-01-24 07:45:00,42.4,41.6,30.32,North,355,0.0,0.0,97,0.00,,SKC,0.00,VWS V14.01,2013-01-24 12:45:00,
2013-01-24 07:50:00,42.4,41.6,30.32,North,355,0.0,0.0,97,0.00,,SKC,0.00,VWS V14.01,2013-01-24 12:50:00,
2013-01-24 07:56:00,42.6,41.8,30.33,North,355,0.0,0.0,97,0.00,,SKC,0.00,VWS V14.01,2013-01-24 12:56:00,
2013-01-24 08:01:00,42.8,42.3,30.33,North,355,0.0,0.0,98,0.00,,SKC,0.00,VWS V14.01,2013-01-24 13:01:00,
2013-01-24 08:06:00,43.0,42.5,30.33,North,355,0.0,0.0,98,0.00,,SKC,0.00,VWS V14.01,2013-01-24 13:06:00,
2013-01-24 08:12:00,43.1,42.6,30.33,North,355,0.0,0.0,98,0.00,,SKC,0.00,VWS V14.01,2013-01-24 13:12:00,
2013-01-24 08:18:00,43.4,42.9,30.33,North,355,0.0,0.0,98,0.00,,SKC,0.00,VWS V14.01,2013-01-24 13:18:00,
2013-01-24 08:23:00,44.0,43.5,30.34,North,355,0.0,1.0,98,0.00,,SKC,0.00,VWS V14.01,2013-01-24 13:23:00,
2013-01-24 08:28:00,44.7,44.4,30.34,North,355,0.0,1.0,99,0.00,,SKC,0.00,VWS V14.01,2013-01-24 13:28:00,
2013-01-24 08:34:00,46.2,45.9,30.34,North,355,2.0,2.0,99,0.00,,SKC,0.00,VWS V14.01,2013-01-24 13:34:00,
2013-01-24 08:39:00,47.2,46.9,30.35,North,355,2.0,3.0,99,0.00,,SKC,0.00,VWS V14.01,2013-01-24 13:39:00,
2013-01-24 08:44:00,48.4,48.1,30.35,WNW,301,3.0,3.0,99,0.00,,SKC,0.00,VWS V14.01,2013-01-24 13:44:00,
2013-01-24 08:50:00,49.6,49.3,30.35,NW,315,4.0,4.0,99,0.00,,SKC,0.00,VWS V14.01,2013-01-24 13:50:00,
2013-01-24 08:56:00,50.7,50.4,30.36,NW,304,2.0,4.0,99,0.00,,SKC,0.00,VWS V14.01,2013-01-24 13:56:00,
2013-01-24 09:01:00,52.4,51.0,30.36,NW,304,0.0,1.0,95,0.00,,SKC,0.00,VWS V14.01,2013-01-24 14:01:00,
2013-01-24 09:06:00,53.9,50.7,30.36,NW,308,3.0,4.0,89,0.00,,SKC,0.00,VWS V14.01,2013-01-24 14:06:00,
2013-01-24 09:12:00,55.1,50.7,30.36,NNW,332,4.0,4.0,85,0.00,,SKC,0.00,VWS V14.01,2013-01-24 14:12:00,
2013-01-24 09:17:00,56.3,50.9,30.36,West,279,2.0,4.0,82,0.00,,SKC,0.00,VWS V14.01,2013-01-24 14:17:00,
2013-01-24 09:23:00,57.4,50.3,30.36,NNW,332,2.0,5.0,77,0.00,,SKC,0.00,VWS V14.01,2013-01-24 14:23:00,
2013-01-24 09:28:00,58.2,50.0,30.36,NW,319,4.0,6.0,74,0.00,,SKC,0.00,VWS V14.01,2013-01-24 14:28:00,
2013-01-24 09:34:00,59.1,50.5,30.36,NW,313,0.0,4.0,73,0.00,,SKC,0.00,VWS V14.01,2013-01-24 14:34:00,
2013-01-24 09:39:00,60.3,50.9,30.36,NW,307,2.0,5.0,71,0.00,,SKC,0.00,VWS V14.01,2013-01-24 14:39:00,
2013-01-24 09:44:00,61.0,49.2,30.36,NNW,332,5.0,5.0,65,0.00,,SKC,0.00,VWS V14.01,2013-01-24 14:44:00,
2013-01-24 09:50:00,61.8,50.7,30.36,NW,319,1.0,5.0,67,0.00,,SKC,0.00,VWS V14.01,2013-01-24 14:50:00,
2013-01-24 09:55:00,62.7,49.9,30.36,NW,304,5.0,5.0,63,0.00,,SKC,0.00,VWS V14.01,2013-01-24 14:55:00,
2013-01-24 10:01:00,63.9,50.6,30.36,WNW,296,4.0,4.0,62,0.00,,SKC,0.00,VWS V14.01,2013-01-24 15:01:00,
2013-01-24 10:06:00,64.7,49.6,30.36,WNW,291,0.0,4.0,58,0.00,,SKC,0.00,VWS V14.01,2013-01-24 15:06:00,
2013-01-24 10:11:00,65.2,49.1,30.36,NW,312,5.0,8.0,56,0.00,,SKC,0.00,VWS V14.01,2013-01-24 15:11:00,
2013-01-24 10:17:00,65.6,50.0,30.36,NW,322,3.0,8.0,57,0.00,,SKC,0.00,VWS V14.01,2013-01-24 15:17:00,
2013-01-24 10:22:00,66.5,50.3,30.36,NW,305,0.0,8.0,56,0.00,,SKC,0.00,VWS V14.01,2013-01-24 15:22:00,
2013-01-24 10:28:00,67.3,51.1,30.36,NW,320,0.0,8.0,56,0.00,,SKC,0.00,VWS V14.01,2013-01-24 15:28:00,
2013-01-24 10:33:00,67.9,51.2,30.36,West,261,5.0,5.0,55,0.00,,SKC,0.00,VWS V14.01,2013-01-24 15:33:00,
2013-01-24 10:38:00,68.3,50.5,30.36,WNW,284,4.0,8.0,53,0.00,,SKC,0.00,VWS V14.01,2013-01-24 15:38:00,
2013-01-24 10:44:00,68.8,50.5,30.36,NW,313,4.0,8.0,52,0.00,,SKC,0.00,VWS V14.01,2013-01-24 15:44:00,
2013-01-24 10:49:00,69.2,51.4,30.36,NW,319,3.0,8.0,53,0.00,,SKC,0.00,VWS V14.01,2013-01-24 15:49:00,
2013-01-24 10:55:00,69.4,52.0,30.35,WNW,290,6.0,8.0,54,0.00,,SKC,0.00,VWS V14.01,2013-01-24 15:55:00,
2013-01-24 11:00:00,70.1,52.2,30.35,NW,304,0.0,1.0,53,0.00,,SKC,0.00,VWS V14.01,2013-01-24 16:00:00,
2013-01-24 11:05:00,70.9,52.9,30.35,NNW,341,2.0,7.0,53,0.00,,SKC,0.00,VWS V14.01,2013-01-24 16:05:00,
2013-01-24 11:11:00,71.2,51.6,30.35,WNW,292,4.0,9.0,50,0.00,,SKC,0.00,VWS V14.01,2013-01-24 16:11:00,
2013-01-24 11:16:00,71.3,52.8,30.35,NW,313,6.0,9.0,52,0.00,,SKC,0.00,VWS V14.01,2013-01-24 16:16:00,
2013-01-24 11:22:00,71.6,52.5,30.35,WNW,286,2.0,9.0,51,0.00,,SKC,0.00,VWS V14.01,2013-01-24 16:22:00,
2013-01-24 11:27:00,71.8,52.2,30.35,WNW,303,7.0,9.0,50,0.00,,SKC,0.00,VWS V14.01,2013-01-24 16:27:00,
2013-01-24 11:33:00,72.1,51.9,30.35,WNW,303,3.0,9.0,49,0.00,,SKC,0.00,VWS V14.01,2013-01-24 16:33:00,
2013-01-24 11:38:00,72.6,52.4,30.34,WNW,296,5.0,9.0,49,0.00,,SKC,0.00,VWS V14.01,2013-01-24 16:38:00,
2013-01-24 11:43:00,72.8,53.1,30.34,NW,313,9.0,10.0,50,0.00,,SKC,0.00,VWS V14.01,2013-01-24 16:43:00,
2013-01-24 11:49:00,72.6,53.5,30.34,WNW,294,3.0,10.0,51,0.00,,SKC,0.00,VWS V14.01,2013-01-24 16:49:00,
2013-01-24 11:54:00,72.8,53.1,30.33,NW,304,6.0,10.0,50,0.00,,SKC,0.00,VWS V14.01,2013-01-24 16:54:00,
2013-01-24 12:00:00,73.2,53.5,30.33,WNW,294,9.0,11.0,50,0.00,,SKC,0.00,VWS V14.01,2013-01-24 17:00:00,
2013-01-24 12:05:00,73.1,53.4,30.32,NNW,342,7.0,11.0,50,0.00,,SKC,0.00,VWS V14.01,2013-01-24 17:05:00,
2013-01-24 12:11:00,72.8,52.5,30.32,NNW,329,5.0,11.0,49,0.00,,SKC,0.00,VWS V14.01,2013-01-24 17:11:00,
2013-01-24 12:16:00,73.0,53.8,30.32,NNW,332,4.0,11.0,51,0.00,,SKC,0.00,VWS V14.01,2013-01-24 17:16:00,
2013-01-24 12:22:00,73.2,52.4,30.32,North,355,4.0,11.0,48,0.00,,SKC,0.00,VWS V14.01,2013-01-24 17:22:00,
2013-01-24 12:27:00,73.4,53.1,30.31,NNW,342,5.0,11.0,49,0.00,,SKC,0.00,VWS V14.01,2013-01-24 17:27:00,
2013-01-24 12:33:00,73.4,53.1,30.31,NE,34,4.0,8.0,49,0.00,,SKC,0.00,VWS V14.01,2013-01-24 17:33:00,
2013-01-24 12:38:00,73.6,53.8,30.30,North,5,5.0,8.0,50,0.00,,SKC,0.00,VWS V14.01,2013-01-24 17:38:00,
2013-01-24 12:43:00,73.7,54.5,30.29,NNW,346,2.0,8.0,51,0.00,,SKC,0.00,VWS V14.01,2013-01-24 17:43:00,
2013-01-24 12:49:00,74.1,53.7,30.29,WNW,296,5.0,8.0,49,0.00,,SKC,0.00,VWS V14.01,2013-01-24 17:49:00,
2013-01-24 12:54:00,75.0,55.1,30.29,NNW,345,5.0,10.0,50,0.00,,SKC,0.00,VWS V14.01,2013-01-24 17:54:00,
2013-01-24 12:59:00,74.5,53.5,30.29,NW,312,7.0,10.0,48,0.00,,SKC,0.00,VWS V14.01,2013-01-24 17:59:00,
2013-01-24 13:05:00,74.5,53.5,30.28,WNW,284,5.0,9.0,48,0.00,,SKC,0.00,VWS V14.01,2013-01-24 18:05:00,
2013-01-24 13:11:00,74.9,54.5,30.28,NW,325,4.0,9.0,49,0.00,,SKC,0.00,VWS V14.01,2013-01-24 18:11:00,
2013-01-24 13:16:00,75.4,55.5,30.28,NW,304,1.0,9.0,50,0.00,,SKC,0.00,VWS V14.01,2013-01-24 18:16:00,
2013-01-24 13:21:00,75.6,54.5,30.27,NNW,343,4.0,9.0,48,0.00,,SKC,0.00,VWS V14.01,2013-01-24 18:21:00,
2013-01-24 13:26:00,75.7,54.6,30.27,NNW,333,6.0,9.0,48,0.00,,SKC,0.00,VWS V14.01,2013-01-24 18:26:00,
2013-01-24 13:32:00,75.6,54.0,30.27,WNW,298,5.0,6.0,47,0.00,,SKC,0.00,VWS V14.01,2013-01-24 18:32:00,
2013-01-24 13:38:00,75.6,55.1,30.27,WNW,292,3.0,6.0,49,0.00,,SKC,0.00,VWS V14.01,2013-01-24 18:38:00,
2013-01-24 13:43:00,75.8,54.2,30.27,WNW,302,6.0,8.0,47,0.00,,SKC,0.00,VWS V14.01,2013-01-24 18:43:00,
2013-01-24 13:48:00,75.8,52.4,30.26,NNW,337,4.0,8.0,44,0.00,,SKC,0.00,VWS V14.01,2013-01-24 18:48:00,
2013-01-24 13:54:00,75.8,54.2,30.26,West,264,5.0,8.0,47,0.00,,SKC,0.00,VWS V14.01,2013-01-24 18:54:00,
2013-01-24 13:59:00,75.6,52.8,30.26,WSW,254,9.0,9.0,45,0.00,,SKC,0.00,VWS V14.01,2013-01-24 18:59:00,
2013-01-24 14:05:00,75.4,53.8,30.25,NW,306,2.0,5.0,47,0.00,,SKC,0.00,VWS V14.01,2013-01-24 19:05:00,
2013-01-24 14:10:00,75.7,52.9,30.25,WNW,298,7.0,8.0,45,0.00,,SKC,0.00,VWS V14.01,2013-01-24 19:10:00,
2013-01-24 14:15:00,75.8,52.4,30.25,SW,236,3.0,8.0,44,0.00,,SKC,0.00,VWS V14.01,2013-01-24 19:15:00,
2013-01-24 14:21:00,75.9,52.5,30.25,WNW,298,4.0,8.0,44,0.00,,SKC,0.00,VWS V14.01,2013-01-24 19:21:00,
2013-01-24 14:26:00,75.8,53.0,30.25,NNE,24,4.0,8.0,45,0.00,,SKC,0.00,VWS V14.01,2013-01-24 19:26:00,
2013-01-24 14:32:00,75.3,52.5,30.25,WNW,296,6.0,7.0,45,0.00,,SKC,0.00,VWS V14.01,2013-01-24 19:32:00,
2013-01-24 14:37:00,75.1,51.7,30.25,SW,232,1.0,7.0,44,0.00,,SKC,0.00,VWS V14.01,2013-01-24 19:37:00,
2013-01-24 14:43:00,75.4,53.2,30.25,WNW,295,5.0,8.0,46,0.00,,SKC,0.00,VWS V14.01,2013-01-24 19:43:00,
2013-01-24 14:48:00,75.8,51.7,30.25,West,263,1.0,8.0,43,0.00,,SKC,0.00,VWS V14.01,2013-01-24 19:48:00,
2013-01-24 14:53:00,76.0,53.2,30.25,North,9,3.0,8.0,45,0.00,,SKC,0.00,VWS V14.01,2013-01-24 19:53:00,
2013-01-24 14:59:00,76.3,51.5,30.25,NW,313,1.0,8.0,42,0.00,,SKC,0.00,VWS V14.01,2013-01-24 19:59:00,
2013-01-24 15:04:00,76.5,52.4,30.25,WNW,288,3.0,8.0,43,0.00,,SKC,0.00,VWS V14.01,2013-01-24 20:04:00,
2013-01-24 15:09:00,76.0,51.9,30.25,NW,308,6.0,8.0,43,0.00,,SKC,0.00,VWS V14.01,2013-01-24 20:09:00,
2013-01-24 15:15:00,75.9,52.5,30.25,WNW,296,2.0,8.0,44,0.00,,SKC,0.00,VWS V14.01,2013-01-24 20:15:00,
2013-01-24 15:20:00,76.3,52.2,30.24,NW,320,0.0,8.0,43,0.00,,SKC,0.00,VWS V14.01,2013-01-24 20:20:00,
2013-01-24 15:25:00,76.0,51.9,30.24,WNW,295,0.0,8.0,43,0.00,,SKC,0.00,VWS V14.01,2013-01-24 20:25:00,
2013-01-24 15:31:00,76.2,52.1,30.24,West,281,9.0,11.0,43,0.00,,SKC,0.00,VWS V14.01,2013-01-24 20:31:00,
2013-01-24 15:36:00,76.5,53.6,30.25,WNW,296,6.0,11.0,45,0.00,,SKC,0.00,VWS V14.01,2013-01-24 20:36:00,
2013-01-24 15:42:00,76.8,52.6,30.25,NNW,327,4.0,11.0,43,0.00,,SKC,0.00,VWS V14.01,2013-01-24 20:42:00,
2013-01-24 15:47:00,76.6,51.2,30.24,WSW,255,2.0,11.0,41,0.00,,SKC,0.00,VWS V14.01,2013-01-24 20:47:00,
2013-01-24 15:52:00,76.1,52.0,30.24,NW,325,5.0,11.0,43,0.00,,SKC,0.00,VWS V14.01,2013-01-24 20:52:00,
2013-01-24 15:58:00,75.8,51.1,30.25,SW,219,6.0,11.0,42,0.00,,SKC,0.00,VWS V14.01,2013-01-24 20:58:00,
2013-01-24 16:03:00,75.4,51.4,30.25,NW,304,4.0,6.0,43,0.00,,SKC,0.00,VWS V14.01,2013-01-24 21:03:00,
2013-01-24 16:08:00,74.7,50.7,30.25,WNW,303,3.0,8.0,43,0.00,,SKC,0.00,VWS V14.01,2013-01-24 21:08:00,
2013-01-24 16:14:00,74.4,50.5,30.25,West,279,5.0,8.0,43,0.00,,SKC,0.00,VWS V14.01,2013-01-24 21:14:00,
2013-01-24 16:19:00,74.6,50.7,30.25,WNW,291,5.0,8.0,43,0.00,,SKC,0.00,VWS V14.01,2013-01-24 21:19:00,
2013-01-24 16:25:00,74.6,51.3,30.25,NW,324,5.0,8.0,44,0.00,,SKC,0.00,VWS V14.01,2013-01-24 21:25:00,
2013-01-24 16:30:00,74.5,51.2,30.25,NW,320,2.0,4.0,44,0.00,,SKC,0.00,VWS V14.01,2013-01-24 21:30:00,
2013-01-24 16:36:00,74.4,51.1,30.24,NW,311,1.0,6.0,44,0.00,,SKC,0.00,VWS V14.01,2013-01-24 21:36:00,
2013-01-24 16:41:00,74.4,51.7,30.24,WSW,253,2.0,6.0,45,0.00,,SKC,0.00,VWS V14.01,2013-01-24 21:41:00,
2013-01-24 16:46:00,74.5,51.2,30.24,WNW,282,3.0,6.0,44,0.00,,SKC,0.00,VWS V14.01,2013-01-24 21:46:00,
2013-01-24 16:52:00,74.4,51.1,30.24,WNW,290,4.0,6.0,44,0.00,,SKC,0.00,VWS V14.01,2013-01-24 21:52:00,
2013-01-24 16:58:00,74.2,50.9,30.24,West,265,2.0,10.0,44,0.00,,SKC,0.00,VWS V14.01,2013-01-24 21:58:00,
2013-01-24 17:03:00,74.0,50.7,30.24,West,281,4.0,5.0,44,0.00,,SKC,0.00,VWS V14.01,2013-01-24 22:03:00,
2013-01-24 17:08:00,73.7,51.1,30.24,West,273,0.0,5.0,45,0.00,,SKC,0.00,VWS V14.01,2013-01-24 22:08:00,
2013-01-24 17:14:00,73.4,50.8,30.24,West,273,0.0,5.0,45,0.00,,SKC,0.00,VWS V14.01,2013-01-24 22:14:00,
2013-01-24 17:19:00,73.1,50.5,30.24,WSW,240,3.0,5.0,45,0.00,,SKC,0.00,VWS V14.01,2013-01-24 22:19:00,
2013-01-24 17:25:00,72.8,50.8,30.24,WSW,256,2.0,5.0,46,0.00,,SKC,0.00,VWS V14.01,2013-01-24 22:25:00,
2013-01-24 17:30:00,72.6,50.7,30.24,WSW,248,1.0,1.0,46,0.00,,SKC,0.00,VWS V14.01,2013-01-24 22:30:00,
2013-01-24 17:35:00,72.3,51.0,30.24,WSW,248,4.0,4.0,47,0.00,,SKC,0.00,VWS V14.01,2013-01-24 22:35:00,
2013-01-24 17:41:00,72.3,51.0,30.24,WSW,242,5.0,5.0,47,0.00,,SKC,0.00,VWS V14.01,2013-01-24 22:41:00,
2013-01-24 17:46:00,72.2,51.4,30.24,WSW,242,0.0,5.0,48,0.00,,SKC,0.00,VWS V14.01,2013-01-24 22:46:00,
2013-01-24 17:51:00,72.0,51.8,30.24,WSW,242,0.0,5.0,49,0.00,,SKC,0.00,VWS V14.01,2013-01-24 22:51:00,
2013-01-24 17:57:00,71.7,53.2,30.25,WSW,242,0.0,5.0,52,0.00,,SKC,0.00,VWS V14.01,2013-01-24 22:57:00,
2013-01-24 18:03:00,71.1,53.1,30.25,WSW,242,0.0,0.0,53,0.00,,SKC,0.00,VWS V14.01,2013-01-24 23:03:00,
2013-01-24 18:08:00,70.2,53.3,30.25,WSW,242,0.0,0.0,55,0.00,,SKC,0.00,VWS V14.01,2013-01-24 23:08:00,
2013-01-24 18:13:00,69.0,52.7,30.25,WSW,242,0.0,0.0,56,0.00,,SKC,0.00,VWS V14.01,2013-01-24 23:13:00,
2013-01-24 18:19:00,68.5,53.2,30.25,WSW,242,0.0,0.0,58,0.00,,SKC,0.00,VWS V14.01,2013-01-24 23:19:00,
2013-01-24 18:24:00,68.0,52.2,30.25,WSW,242,0.0,0.0,57,0.00,,SKC,0.00,VWS V14.01,2013-01-24 23:24:00,
2013-01-24 18:30:00,67.0,52.2,30.25,WSW,242,0.0,0.0,59,0.00,,SKC,0.00,VWS V14.01,2013-01-24 23:30:00,
2013-01-24 18:35:00,65.5,52.2,30.26,WSW,242,0.0,0.0,62,0.00,,SKC,0.00,VWS V14.01,2013-01-24 23:35:00,
2013-01-24 18:40:00,64.7,51.8,30.26,WSW,242,0.0,0.0,63,0.00,,SKC,0.00,VWS V14.01,2013-01-24 23:40:00,
2013-01-24 18:46:00,63.7,52.1,30.26,WSW,242,0.0,0.0,66,0.00,,SKC,0.00,VWS V14.01,2013-01-24 23:46:00,
2013-01-24 18:52:00,63.4,51.9,30.26,WSW,242,0.0,0.0,66,0.00,,SKC,0.00,VWS V14.01,2013-01-24 23:52:00,
2013-01-24 18:57:00,62.7,52.0,30.26,WSW,242,0.0,0.0,68,0.00,,SKC,0.00,VWS V14.01,2013-01-24 23:57:00,
2013-01-24 19:02:00,62.0,51.7,30.26,WSW,242,0.0,0.0,69,0.00,,SKC,0.00,VWS V14.01,2013-01-25 00:02:00,
2013-01-24 19:07:00,61.7,51.4,30.26,WSW,242,0.0,0.0,69,0.00,,SKC,0.00,VWS V14.01,2013-01-25 00:07:00,
2013-01-24 19:12:00,61.5,52.0,30.27,WSW,242,0.0,0.0,71,0.00,,SKC,0.00,VWS V14.01,2013-01-25 00:12:00,
2013-01-24 19:18:00,61.2,51.7,30.27,WSW,242,0.0,0.0,71,0.00,,SKC,0.00,VWS V14.01,2013-01-25 00:18:00,
2013-01-24 19:23:00,60.5,51.1,30.27,WSW,242,0.0,0.0,71,0.00,,SKC,0.00,VWS V14.01,2013-01-25 00:23:00,
2013-01-24 19:28:00,60.1,51.4,30.27,WSW,242,0.0,0.0,73,0.00,,SKC,0.00,VWS V14.01,2013-01-25 00:28:00,
2013-01-24 19:34:00,59.6,51.7,30.27,WSW,242,0.0,0.0,75,0.00,,SKC,0.00,VWS V14.01,2013-01-25 00:34:00,
2013-01-24 19:40:00,59.1,51.5,30.27,WSW,242,0.0,0.0,76,0.00,,SKC,0.00,VWS V14.01,2013-01-25 00:40:00,
2013-01-24 19:45:00,58.8,51.3,30.28,WSW,242,0.0,0.0,76,0.00,,SKC,0.00,VWS V14.01,2013-01-25 00:45:00,
2013-01-24 19:50:00,58.7,51.9,30.28,WSW,242,0.0,0.0,78,0.00,,SKC,0.00,VWS V14.01,2013-01-25 00:50:00,
2013-01-24 19:56:00,58.5,52.4,30.28,WSW,242,0.0,0.0,80,0.00,,SKC,0.00,VWS V14.01,2013-01-25 00:56:00,
2013-01-24 20:01:00,58.2,52.1,30.28,WSW,242,0.0,0.0,80,0.00,,SKC,0.00,VWS V14.01,2013-01-25 01:01:00,
2013-01-24 20:06:00,57.9,52.1,30.28,WSW,242,0.0,0.0,81,0.00,,SKC,0.00,VWS V14.01,2013-01-25 01:06:00,
2013-01-24 20:12:00,57.6,51.8,30.28,WSW,242,0.0,0.0,81,0.00,,SKC,0.00,VWS V14.01,2013-01-25 01:12:00,
2013-01-24 20:17:00,57.1,51.3,30.28,WSW,242,0.0,0.0,81,0.00,,SKC,0.00,VWS V14.01,2013-01-25 01:17:00,
2013-01-24 20:23:00,56.9,51.5,30.28,WSW,242,0.0,0.0,82,0.00,,SKC,0.00,VWS V14.01,2013-01-25 01:23:00,
2013-01-24 20:28:00,56.6,51.2,30.28,WSW,242,0.0,0.0,82,0.00,,SKC,0.00,VWS V14.01,2013-01-25 01:28:00,
2013-01-24 20:34:00,56.3,50.9,30.28,WSW,242,0.0,0.0,82,0.00,,SKC,0.00,VWS V14.01,2013-01-25 01:34:00,
2013-01-24 20:39:00,56.1,51.7,30.28,WSW,242,0.0,0.0,85,0.00,,SKC,0.00,VWS V14.01,2013-01-25 01:39:00,
2013-01-24 20:45:00,55.8,51.4,30.29,WSW,242,0.0,0.0,85,0.00,,SKC,0.00,VWS V14.01,2013-01-25 01:45:00,
2013-01-24 20:50:00,55.6,51.5,30.29,WSW,242,0.0,0.0,86,0.00,,SKC,0.00,VWS V14.01,2013-01-25 01:50:00,
2013-01-24 20:55:00,55.4,51.3,30.29,WSW,242,0.0,0.0,86,0.00,,SKC,0.00,VWS V14.01,2013-01-25 01:55:00,
2013-01-24 21:01:00,55.2,51.1,30.29,WSW,242,0.0,0.0,86,0.00,,SKC,0.00,VWS V14.01,2013-01-25 02:01:00,
2013-01-24 21:06:00,55.0,51.2,30.29,WSW,242,0.0,0.0,87,0.00,,SKC,0.00,VWS V14.01,2013-01-25 02:06:00,
2013-01-24 21:12:00,54.9,51.1,30.29,WSW,242,0.0,0.0,87,0.00,,SKC,0.00,VWS V14.01,2013-01-25 02:12:00,
2013-01-24 21:17:00,54.7,51.2,30.29,WSW,242,0.0,0.0,88,0.00,,SKC,0.00,VWS V14.01,2013-01-25 02:17:00,
2013-01-24 21:22:00,54.6,51.1,30.29,WSW,242,0.0,0.0,88,0.00,,SKC,0.00,VWS V14.01,2013-01-25 02:22:00,
2013-01-24 21:28:00,54.6,51.4,30.30,WSW,242,0.0,0.0,89,0.00,,SKC,0.00,VWS V14.01,2013-01-25 02:28:00,
2013-01-24 21:33:00,54.5,51.6,30.30,WSW,242,0.0,0.0,90,0.00,,SKC,0.00,VWS V14.01,2013-01-25 02:33:00,
2013-01-24 21:38:00,54.3,51.4,30.30,WSW,242,0.0,0.0,90,0.00,,SKC,0.00,VWS V14.01,2013-01-25 02:38:00,
2013-01-24 21:44:00,54.2,51.3,30.29,WSW,242,0.0,0.0,90,0.00,,SKC,0.00,VWS V14.01,2013-01-25 02:44:00,
2013-01-24 21:49:00,54.0,50.8,30.30,WSW,242,0.0,0.0,89,0.00,,SKC,0.00,VWS V14.01,2013-01-25 02:49:00,
2013-01-24 21:55:00,53.9,50.7,30.30,WSW,242,0.0,0.0,89,0.00,,SKC,0.00,VWS V14.01,2013-01-25 02:55:00,
2013-01-24 22:00:00,53.8,50.6,30.30,WSW,242,0.0,0.0,89,0.00,,SKC,0.00,VWS V14.01,2013-01-25 03:00:00,
2013-01-24 22:05:00,53.7,50.8,30.30,WSW,242,0.0,0.0,90,0.00,,SKC,0.00,VWS V14.01,2013-01-25 03:05:00,
2013-01-24 22:11:00,53.6,50.7,30.30,WSW,242,0.0,0.0,90,0.00,,SKC,0.00,VWS V14.01,2013-01-25 03:11:00,
2013-01-24 22:16:00,53.5,50.6,30.30,WSW,242,0.0,0.0,90,0.00,,SKC,0.00,VWS V14.01,2013-01-25 03:16:00,
2013-01-24 22:22:00,53.4,50.8,30.30,WSW,242,0.0,0.0,91,0.00,,SKC,0.00,VWS V14.01,2013-01-25 03:22:00,
2013-01-24 22:27:00,53.3,50.7,30.30,WSW,242,0.0,0.0,91,0.00,,SKC,0.00,VWS V14.01,2013-01-25 03:27:00,
2013-01-24 22:32:00,53.3,50.7,30.30,WSW,242,0.0,0.0,91,0.00,,SKC,0.00,VWS V14.01,2013-01-25 03:32:00,
2013-01-24 22:38:00,53.2,50.9,30.30,WSW,242,0.0,1.0,92,0.00,,SKC,0.00,VWS V14.01,2013-01-25 03:38:00,
2013-01-24 22:43:00,53.0,50.7,30.31,WSW,242,0.0,1.0,92,0.00,,SKC,0.00,VWS V14.01,2013-01-25 03:43:00,
2013-01-24 22:48:00,52.9,50.6,30.31,WSW,242,0.0,2.0,92,0.00,,SKC,0.00,VWS V14.01,2013-01-25 03:48:00,
2013-01-24 22:54:00,52.8,50.8,30.31,WSW,242,0.0,2.0,93,0.00,,SKC,0.00,VWS V14.01,2013-01-25 03:54:00,
2013-01-24 22:59:00,52.7,50.7,30.31,WSW,242,0.0,2.0,93,0.00,,SKC,0.00,VWS V14.01,2013-01-25 03:59:00,
2013-01-24 23:04:00,52.7,50.7,30.31,WSW,242,0.0,1.0,93,0.00,,SKC,0.00,VWS V14.01,2013-01-25 04:04:00,
2013-01-24 23:10:00,52.7,50.7,30.31,WSW,242,0.0,1.0,93,0.00,,SKC,0.00,VWS V14.01,2013-01-25 04:10:00,
2013-01-24 23:16:00,52.8,51.1,30.31,WSW,242,0.0,1.0,94,0.00,,SKC,0.00,VWS V14.01,2013-01-25 04:16:00,
2013-01-24 23:21:00,52.9,51.2,30.31,WSW,242,0.0,1.0,94,0.00,,SKC,0.00,VWS V14.01,2013-01-25 04:21:00,
2013-01-24 23:26:00,52.9,51.2,30.30,WSW,242,0.0,1.0,94,0.00,,SKC,0.00,VWS V14.01,2013-01-25 04:26:00,
2013-01-24 23:32:00,52.9,51.2,30.30,WSW,242,0.0,0.0,94,0.00,,SKC,0.00,VWS V14.01,2013-01-25 04:32:00,
2013-01-24 23:37:00,52.8,51.1,30.30,WSW,242,0.0,0.0,94,0.00,,SKC,0.00,VWS V14.01,2013-01-25 04:37:00,
2013-01-24 23:43:00,52.8,51.1,30.31,WSW,242,0.0,0.0,94,0.00,,SKC,0.00,VWS V14.01,2013-01-25 04:43:00,
2013-01-24 23:48:00,52.8,51.1,30.30,WSW,242,0.0,0.0,94,0.00,,SKC,0.00,VWS V14.01,2013-01-25 04:48:00,
2013-01-24 23:54:00,52.7,51.0,30.30,WSW,242,0.0,0.0,94,0.00,,SKC,0.00,VWS V14.01,2013-01-25 04:54:00,
2013-01-24 23:59:00,52.7,51.0,30.30,WSW,242,0.0,0.0,94,0.00,,SKC,0.00,VWS V14.01,2013-01-25 04:59:00,